Time;durP1;ratioP1;P1;durP2;ratioP2;P2;SDS_P1;SDS_P2;PMS_P1;PMS_P2;Temp;Humidity;BMP_temperature;BMP_pressure;BME280_temperature;BME280_humidity;BME280_pressure;Samples;Min_cycle;Max_cycle;Signal;HPM_P1;HPM_P2
2022/11/24 00:01:17;;;;;;;13.65;10.15;;;12.30;99.90;;;;;;5067765;28;20202;-77
2022/11/24 00:03:50;;;;;;;20.05;10.38;;;12.30;99.90;;;;;;5055767;28;20052;-77
2022/11/24 00:06:18;;;;;;;14.18;10.60;;;12.30;99.90;;;;;;5054305;28;20044;-78
2022/11/24 00:08:46;;;;;;;17.73;12.23;;;12.30;99.90;;;;;;5063320;28;20045;-78
2022/11/24 00:11:19;;;;;;;17.73;10.68;;;12.20;99.90;;;;;;5020894;28;20080;-78
2022/11/24 00:13:47;;;;;;;17.85;12.27;;;12.20;99.90;;;;;;5039821;28;20045;-78
2022/11/24 00:16:19;;;;;;;21.13;12.45;;;12.20;99.90;;;;;;5048230;28;20549;-77
2022/11/24 00:18:49;;;;;;;15.07;10.23;;;12.20;99.90;;;;;;5035718;28;20123;-78
2022/11/24 00:21:18;;;;;;;17.58;11.48;;;12.10;99.90;;;;;;5051512;28;20044;-81
2022/11/24 00:23:46;;;;;;;16.92;13.23;;;12.10;99.90;;;;;;5071750;28;20040;-77
2022/11/24 00:26:20;;;;;;;14.43;11.13;;;12.10;99.90;;;;;;5070616;28;20093;-77
2022/11/24 00:28:49;;;;;;;15.63;12.15;;;12.10;99.90;;;;;;5047173;28;20043;-78
2022/11/24 00:31:34;;;;;;;17.95;12.48;;;12.10;99.90;;;;;;5034625;28;20109;-77
2022/11/24 00:34:04;;;;;;;15.35;11.68;;;12.10;99.90;;;;;;5036815;28;20044;-77
2022/11/24 00:36:34;;;;;;;18.17;11.43;;;12.00;99.90;;;;;;5045472;28;20052;-77
2022/11/24 00:39:09;;;;;;;19.48;13.07;;;12.00;99.90;;;;;;5039816;28;20052;-78
2022/11/24 00:41:36;;;;;;;18.92;12.75;;;12.10;99.90;;;;;;5067300;28;20074;-77
2022/11/24 00:44:04;;;;;;;22.98;13.50;;;12.00;99.90;;;;;;5054525;28;20036;-77
2022/11/24 00:46:32;;;;;;;19.60;12.00;;;12.00;99.90;;;;;;5054332;28;20687;-77
2022/11/24 00:49:00;;;;;;;18.45;13.02;;;12.00;99.90;;;;;;5039216;28;20048;-77
2022/11/24 00:51:29;;;;;;;18.52;13.32;;;12.00;99.90;;;;;;5037309;28;20096;-77
2022/11/24 00:53:58;;;;;;;16.00;13.00;;;11.90;99.90;;;;;;5049309;28;20056;-77
2022/11/24 00:56:27;;;;;;;15.35;12.00;;;11.90;99.90;;;;;;5036297;28;20053;-77
2022/11/24 00:58:54;;;;;;;19.00;11.18;;;11.90;99.90;;;;;;5020084;28;20075;-77
2022/11/24 01:01:24;;;;;;;14.95;11.52;;;11.80;99.90;;;;;;5036339;28;20155;-77
2022/11/24 01:03:54;;;;;;;18.08;11.55;;;11.90;99.90;;;;;;5036309;28;20044;-78
2022/11/24 01:06:24;;;;;;;14.63;11.75;;;11.80;99.90;;;;;;5052351;28;20062;-78
2022/11/24 01:08:52;;;;;;;18.02;11.00;;;11.80;99.90;;;;;;5070138;28;20053;-78
2022/11/24 01:12:00;;;;;;;13.48;11.13;;;11.80;99.90;;;;;;5019941;28;20052;-78
2022/11/24 01:14:23;;;;;;;15.60;9.38;;;11.80;99.90;;;;;;5055400;28;20047;-78
2022/11/24 01:16:51;;;;;;;16.77;10.25;;;11.80;99.90;;;;;;5055278;28;20051;-78
2022/11/24 01:19:18;;;;;;;15.07;9.45;;;11.80;99.90;;;;;;5072223;28;20040;-78
2022/11/24 01:21:46;;;;;;;18.10;11.10;;;11.70;99.90;;;;;;5072565;28;20402;-78
2022/11/24 01:24:14;;;;;;;13.90;9.95;;;11.70;99.90;;;;;;5055800;28;20048;-77
2022/11/24 01:26:42;;;;;;;13.45;10.38;;;11.70;99.90;;;;;;5068227;28;20044;-78
2022/11/24 01:29:10;;;;;;;13.23;9.43;;;11.70;99.90;;;;;;5035197;28;20037;-77
2022/11/24 01:31:38;;;;;;;14.70;10.00;;;11.70;99.90;;;;;;5034943;28;20094;-77
2022/11/24 01:34:06;;;;;;;16.33;9.82;;;11.70;99.90;;;;;;5072111;28;20866;-77
2022/11/24 01:36:34;;;;;;;14.52;9.88;;;11.60;99.90;;;;;;5036536;28;20039;-77
2022/11/24 01:39:01;;;;;;;15.00;10.07;;;11.60;99.90;;;;;;5061155;28;20548;-76
2022/11/24 01:41:29;;;;;;;14.68;9.35;;;11.60;99.90;;;;;;5033712;28;20051;-76
2022/11/24 01:43:57;;;;;;;11.30;9.27;;;11.50;99.90;;;;;;5067319;28;20076;-76
2022/11/24 01:46:47;;;;;;;15.05;9.68;;;11.50;99.90;;;;;;5050494;28;20522;-76
2022/11/24 01:49:26;;;;;;;14.63;9.77;;;11.50;99.90;;;;;;5053908;28;20140;-76
2022/11/24 01:52:03;;;;;;;12.73;9.57;;;11.50;99.90;;;;;;5069550;28;20091;-76
2022/11/24 01:54:35;;;;;;;14.55;9.68;;;11.50;99.90;;;;;;5058536;28;20043;-77
2022/11/24 01:57:24;;;;;;;12.75;10.38;;;11.50;99.90;;;;;;5089162;28;20048;-77
2022/11/24 01:59:58;;;;;;;14.45;9.70;;;11.50;99.90;;;;;;5065902;28;20036;-76
2022/11/24 02:02:28;;;;;;;19.55;10.63;;;11.50;99.90;;;;;;5067809;28;20536;-76
2022/11/24 02:05:00;;;;;;;14.55;9.52;;;11.50;99.90;;;;;;5053681;28;20124;-76
2022/11/24 02:07:27;;;;;;;18.70;9.52;;;11.40;99.90;;;;;;5071351;28;20059;-75
2022/11/24 02:10:00;;;;;;;12.95;8.13;;;11.40;99.90;;;;;;5087919;28;20048;-76
2022/11/24 02:12:28;;;;;;;10.77;6.60;;;11.30;99.90;;;;;;5056620;28;20164;-77
2022/11/24 02:14:56;;;;;;;13.68;7.78;;;11.40;99.90;;;;;;5062622;28;20052;-76
2022/11/24 02:17:24;;;;;;;11.23;7.45;;;11.30;99.90;;;;;;5065510;28;20506;-76
2022/11/24 02:19:59;;;;;;;9.90;6.15;;;11.20;99.90;;;;;;5059263;28;20128;-76
2022/11/24 02:22:48;;;;;;;9.45;5.80;;;11.20;99.90;;;;;;5051236;28;20052;-76
2022/11/24 02:25:31;;;;;;;8.10;6.18;;;11.20;99.90;;;;;;5050949;28;20774;-76
2022/11/24 02:28:00;;;;;;;7.45;5.18;;;11.30;99.90;;;;;;5051295;28;20055;-77
2022/11/24 02:30:30;;;;;;;10.95;5.38;;;11.30;99.90;;;;;;5070041;28;20482;-76
2022/11/24 02:32:58;;;;;;;12.30;5.40;;;11.20;99.90;;;;;;5070699;28;20143;-76
2022/11/24 02:35:27;;;;;;;7.38;5.40;;;11.20;99.90;;;;;;5048175;28;20052;-76
2022/11/24 02:37:54;;;;;;;10.02;5.63;;;11.20;99.90;;;;;;5070469;28;20059;-76
2022/11/24 02:40:24;;;;;;;7.85;4.68;;;11.20;99.90;;;;;;5070866;28;20458;-76
2022/11/24 02:42:56;;;;;;;8.90;4.68;;;11.10;99.90;;;;;;5053919;28;20539;-76
2022/11/24 02:45:26;;;;;;;5.53;3.67;;;11.10;99.90;;;;;;5054181;28;20055;-76
2022/11/24 02:47:54;;;;;;;7.43;4.30;;;11.10;99.90;;;;;;5054075;28;20146;-77
2022/11/24 02:50:21;;;;;;;6.95;3.83;;;11.10;99.90;;;;;;5070823;28;20394;-76
2022/11/24 02:52:49;;;;;;;7.57;4.50;;;11.00;99.90;;;;;;5070279;28;20056;-76
2022/11/24 02:55:16;;;;;;;6.13;3.25;;;11.00;99.90;;;;;;5054151;28;20043;-76
2022/11/24 02:57:44;;;;;;;4.47;3.10;;;11.10;99.90;;;;;;5088518;28;20494;-76
2022/11/24 03:00:12;;;;;;;7.57;3.63;;;11.00;99.90;;;;;;5054161;28;20052;-76
2022/11/24 03:06:22;;;;;;;8.27;3.58;;;11.10;99.90;;;;;;5069863;28;20043;-76
2022/11/24 03:08:50;;;;;;;7.53;4.38;;;11.10;99.90;;;;;;5087889;28;20044;-76
2022/11/24 03:11:17;;;;;;;5.13;3.00;;;11.10;99.90;;;;;;5055589;28;20083;-75
2022/11/24 03:13:44;;;;;;;5.32;2.67;;;11.00;99.90;;;;;;5032452;28;20737;-76
2022/11/24 03:16:12;;;;;;;6.07;3.35;;;11.00;99.90;;;;;;5040744;28;20048;-75
2022/11/24 03:18:39;;;;;;;5.47;2.95;;;11.00;99.90;;;;;;5066724;28;20155;-76
2022/11/24 03:21:07;;;;;;;7.25;4.07;;;11.00;99.90;;;;;;5049899;28;20238;-75
2022/11/24 03:23:34;;;;;;;4.05;2.35;;;10.90;99.90;;;;;;5050090;28;20098;-76
2022/11/24 03:26:13;;;;;;;3.15;2.47;;;10.90;99.90;;;;;;5016446;28;20776;-76
2022/11/24 03:28:41;;;;;;;4.35;2.63;;;10.90;99.90;;;;;;5038596;28;20059;-76
2022/11/24 03:31:10;;;;;;;7.47;3.00;;;10.90;99.90;;;;;;5068102;28;20032;-76
2022/11/24 03:33:37;;;;;;;3.40;2.53;;;10.90;99.90;;;;;;5048465;28;20048;-75
2022/11/24 03:36:06;;;;;;;6.05;2.53;;;10.90;99.90;;;;;;5066357;28;20040;-76
2022/11/24 03:38:33;;;;;;;4.20;2.90;;;10.90;99.90;;;;;;5049676;28;20049;-76
2022/11/24 03:41:01;;;;;;;3.17;1.90;;;10.80;99.90;;;;;;5066651;28;20445;-76
2022/11/24 03:43:28;;;;;;;4.20;1.75;;;10.80;99.90;;;;;;5066538;28;20102;-75
2022/11/24 03:45:55;;;;;;;3.60;2.17;;;10.90;99.90;;;;;;5079019;28;20048;-76
2022/11/24 03:48:23;;;;;;;3.00;1.85;;;10.90;99.90;;;;;;5052568;28;20544;-76
2022/11/24 03:50:56;;;;;;;3.95;2.63;;;10.90;99.90;;;;;;5069565;28;20059;-76
2022/11/24 03:53:26;;;;;;;3.15;2.15;;;10.90;99.90;;;;;;5069324;28;20431;-76
2022/11/24 03:55:54;;;;;;;4.47;1.85;;;10.90;99.90;;;;;;5052942;28;20099;-76
2022/11/24 03:58:22;;;;;;;3.45;2.08;;;10.90;99.90;;;;;;5088250;28;20040;-76
2022/11/24 04:00:52;;;;;;;3.33;1.98;;;10.90;99.90;;;;;;5033542;28;20041;-76
2022/11/24 04:03:20;;;;;;;4.15;1.90;;;10.90;99.90;;;;;;5048840;28;20506;-76
2022/11/24 04:05:48;;;;;;;7.40;2.50;;;10.90;99.90;;;;;;5057955;28;20052;-76
2022/11/24 04:08:16;;;;;;;2.72;1.90;;;10.90;99.90;;;;;;5032594;28;20151;-75
2022/11/24 04:10:44;;;;;;;7.22;2.95;;;10.90;99.90;;;;;;5062785;28;20064;-75
2022/11/24 04:13:14;;;;;;;6.38;2.35;;;10.90;99.90;;;;;;5069388;28;20043;-75
2022/11/24 04:15:43;;;;;;;3.28;1.98;;;10.90;99.90;;;;;;5090014;28;20051;-75
2022/11/24 04:18:12;;;;;;;4.10;2.75;;;10.90;99.90;;;;;;5053186;28;20044;-76
2022/11/24 04:20:40;;;;;;;5.40;2.67;;;10.80;99.90;;;;;;5036106;28;20051;-76
2022/11/24 04:23:09;;;;;;;6.18;2.08;;;10.80;99.90;;;;;;5036554;28;20139;-75
2022/11/24 04:25:36;;;;;;;5.18;2.58;;;10.80;99.90;;;;;;5070463;28;20047;-75
2022/11/24 04:28:04;;;;;;;4.90;2.40;;;10.70;99.90;;;;;;5073036;28;20044;-76
2022/11/24 04:30:32;;;;;;;3.75;2.40;;;10.80;99.90;;;;;;5072847;28;20044;-75
2022/11/24 04:32:59;;;;;;;4.15;2.33;;;10.80;99.90;;;;;;5056773;28;20137;-76
2022/11/24 04:35:27;;;;;;;5.45;3.08;;;10.80;99.90;;;;;;5072725;28;20040;-75
2022/11/24 04:37:54;;;;;;;5.03;2.80;;;10.80;99.90;;;;;;5039746;28;20044;-75
2022/11/24 04:40:22;;;;;;;5.82;3.28;;;10.90;99.90;;;;;;5055629;28;20048;-76
2022/11/24 04:42:53;;;;;;;3.75;2.08;;;10.90;99.90;;;;;;5047979;28;20080;-76
2022/11/24 04:45:21;;;;;;;3.47;2.35;;;10.80;99.90;;;;;;5019754;28;20048;-76
2022/11/24 04:47:49;;;;;;;5.75;2.72;;;10.80;99.90;;;;;;5018835;28;20148;-76
2022/11/24 04:50:16;;;;;;;6.38;2.97;;;10.90;99.90;;;;;;5054239;28;20055;-76
2022/11/24 04:52:44;;;;;;;11.23;3.08;;;10.80;99.90;;;;;;5072799;28;20032;-76
2022/11/24 04:55:12;;;;;;;5.57;2.40;;;10.90;99.90;;;;;;5072231;28;20055;-76
2022/11/24 04:57:39;;;;;;;7.22;2.50;;;10.90;99.90;;;;;;5055827;28;20101;-76
2022/11/24 05:00:08;;;;;;;5.72;2.53;;;10.90;99.90;;;;;;5072537;28;20486;-76
2022/11/24 05:02:36;;;;;;;5.53;2.60;;;10.90;99.90;;;;;;5067429;28;20048;-76
2022/11/24 05:05:04;;;;;;;5.15;2.72;;;10.90;99.90;;;;;;5036139;28;20085;-76
2022/11/24 05:07:33;;;;;;;4.45;2.83;;;10.90;99.90;;;;;;5061100;28;20482;-76
2022/11/24 05:12:58;;;;;;;3.10;2.17;;;10.90;99.90;;;;;;5055065;28;20044;-76
2022/11/24 05:15:26;;;;;;;4.35;2.38;;;10.90;99.90;;;;;;5071234;28;20048;-76
2022/11/24 05:17:54;;;;;;;6.47;2.38;;;10.90;99.90;;;;;;5090263;28;20059;-76
2022/11/24 05:20:22;;;;;;;3.97;2.65;;;10.90;99.90;;;;;;5072265;28;20075;-76
2022/11/24 05:22:50;;;;;;;6.22;3.38;;;10.90;99.90;;;;;;5072030;28;21033;-76
2022/11/24 05:25:17;;;;;;;3.55;2.25;;;10.90;99.90;;;;;;5038602;28;20139;-76
2022/11/24 05:27:45;;;;;;;4.45;2.15;;;10.90;99.90;;;;;;5090108;28;20845;-77
2022/11/24 05:30:14;;;;;;;4.75;3.00;;;10.90;99.90;;;;;;5055343;28;20109;-76
2022/11/24 05:32:41;;;;;;;6.35;3.22;;;10.90;99.90;;;;;;5072045;28;20067;-76
2022/11/24 05:35:09;;;;;;;6.07;2.40;;;10.90;99.90;;;;;;5057907;28;20048;-76
2022/11/24 05:37:37;;;;;;;5.85;2.65;;;10.90;99.90;;;;;;5034447;28;20115;-76
2022/11/24 05:40:05;;;;;;;6.25;2.60;;;10.90;99.90;;;;;;5035145;28;20047;-76
2022/11/24 05:42:39;;;;;;;3.30;2.10;;;10.90;99.90;;;;;;5069571;28;20388;-76
2022/11/24 05:45:18;;;;;;;3.95;2.22;;;10.90;99.90;;;;;;5046514;28;20577;-76
2022/11/24 05:47:47;;;;;;;4.20;2.15;;;10.90;99.90;;;;;;5052597;28;20074;-76
2022/11/24 05:50:17;;;;;;;5.78;2.95;;;10.90;99.90;;;;;;5060193;28;20044;-76
2022/11/24 05:52:45;;;;;;;3.65;2.50;;;10.90;99.90;;;;;;5071569;28;20036;-75
2022/11/24 05:55:18;;;;;;;4.88;2.95;;;10.90;99.90;;;;;;5071660;28;20146;-75
2022/11/24 05:57:45;;;;;;;5.07;2.33;;;11.00;99.90;;;;;;5054238;28;20140;-75
2022/11/24 06:00:16;;;;;;;8.23;2.20;;;11.10;99.90;;;;;;5054539;28;20052;-76
2022/11/24 06:02:44;;;;;;;4.30;2.55;;;11.50;99.90;;;;;;5071034;28;20037;-75
2022/11/24 06:05:11;;;;;;;3.90;2.70;;;12.00;99.90;;;;;;5036263;28;20056;-76
2022/11/24 06:07:39;;;;;;;3.22;1.90;;;12.50;99.90;;;;;;5080873;28;20459;-76
2022/11/24 06:10:07;;;;;;;3.58;2.45;;;13.10;99.90;;;;;;5056446;28;20626;-76
2022/11/24 06:12:34;;;;;;;6.65;3.38;;;13.60;99.90;;;;;;5070360;28;20107;-76
2022/11/24 06:15:02;;;;;;;5.60;3.60;;;14.20;99.90;;;;;;5054596;28;20051;-76
2022/11/24 06:17:30;;;;;;;5.53;3.75;;;14.80;99.90;;;;;;5059948;28;20481;-76
2022/11/24 06:19:57;;;;;;;5.53;3.28;;;15.50;99.90;;;;;;5051378;28;20045;-76
2022/11/24 06:22:25;;;;;;;4.50;2.88;;;16.00;99.90;;;;;;5050856;28;20052;-75
2022/11/24 06:24:52;;;;;;;6.05;2.50;;;16.60;99.90;;;;;;5051123;28;20105;-75
2022/11/24 06:27:20;;;;;;;2.80;1.90;;;17.10;99.90;;;;;;5067980;28;20682;-75
2022/11/24 06:29:48;;;;;;;5.07;1.90;;;17.50;99.90;;;;;;5051425;28;20081;-75
2022/11/24 06:32:16;;;;;;;6.93;2.22;;;18.10;99.90;;;;;;5076709;28;20048;-75
2022/11/24 06:34:43;;;;;;;4.40;2.33;;;18.60;99.90;;;;;;5055621;28;20494;-75
2022/11/24 06:37:12;;;;;;;5.13;2.88;;;19.10;99.90;;;;;;5051127;28;20063;-75
2022/11/24 06:39:39;;;;;;;2.75;1.75;;;19.60;99.90;;;;;;5069087;28;20144;-75
2022/11/24 06:42:07;;;;;;;10.52;3.78;;;20.00;99.40;;;;;;5018821;28;20048;-75
2022/11/24 06:44:35;;;;;;;6.68;3.35;;;20.50;98.80;;;;;;5050691;28;20112;-74
2022/11/24 06:47:02;;;;;;;3.65;2.55;;;20.90;98.20;;;;;;5050905;28;20056;-75
2022/11/24 06:49:30;;;;;;;3.28;2.25;;;21.50;97.20;;;;;;5067960;28;20040;-74
2022/11/24 06:51:57;;;;;;;4.05;2.25;;;22.00;96.20;;;;;;5051098;28;20052;-73
2022/11/24 06:54:25;;;;;;;4.43;1.80;;;22.40;95.60;;;;;;5087368;28;20068;-72
2022/11/24 06:56:59;;;;;;;3.08;1.38;;;22.70;95.00;;;;;;5053761;28;20555;-72
2022/11/24 06:59:27;;;;;;;4.28;1.73;;;23.10;94.40;;;;;;5070384;28;20059;-72
2022/11/24 07:01:55;;;;;;;2.28;1.48;;;23.40;93.90;;;;;;5049625;28;20048;-72
2022/11/24 07:04:22;;;;;;;1.83;1.30;;;23.80;93.60;;;;;;5077291;28;20109;-75
2022/11/24 07:06:50;;;;;;;3.30;1.80;;;24.30;92.80;;;;;;5070089;28;20051;-75
2022/11/24 07:09:17;;;;;;;2.05;1.40;;;24.60;92.20;;;;;;5070523;28;20041;-72
2022/11/24 07:11:45;;;;;;;2.25;1.30;;;25.10;91.60;;;;;;5086373;28;20036;-72
2022/11/24 07:14:12;;;;;;;2.38;1.27;;;25.20;91.20;;;;;;5070657;28;20101;-72
2022/11/24 07:16:40;;;;;;;3.20;1.25;;;25.20;90.90;;;;;;5069545;28;20134;-72
2022/11/24 07:19:09;;;;;;;3.65;1.30;;;25.00;90.80;;;;;;5070295;28;20044;-72
2022/11/24 07:21:36;;;;;;;3.67;1.60;;;24.70;90.80;;;;;;5072584;28;20489;-72
2022/11/24 07:24:04;;;;;;;2.47;1.73;;;24.30;91.00;;;;;;5055534;28;20044;-75
2022/11/24 07:26:36;;;;;;;4.70;2.28;;;23.80;91.40;;;;;;5068107;28;20421;-75
2022/11/24 07:29:04;;;;;;;3.60;1.30;;;23.40;91.70;;;;;;5069001;28;20546;-75
2022/11/24 07:31:31;;;;;;;3.92;1.02;;;22.80;91.90;;;;;;5079747;28;20041;-75
2022/11/24 07:33:59;;;;;;;2.72;1.25;;;22.50;92.40;;;;;;5044988;28;20055;-79
2022/11/24 07:36:26;;;;;;;2.90;1.40;;;22.20;92.60;;;;;;5064162;28;20040;-77
2022/11/24 07:38:54;;;;;;;2.53;1.48;;;21.90;92.70;;;;;;5064252;28;20102;-77
2022/11/24 07:41:21;;;;;;;3.35;1.50;;;21.60;93.00;;;;;;5050620;28;20072;-77
2022/11/24 07:43:50;;;;;;;3.05;1.40;;;21.40;93.30;;;;;;5085745;28;20089;-76
2022/11/24 07:46:19;;;;;;;4.30;2.00;;;21.20;93.80;;;;;;5041034;28;20040;-76
2022/11/24 07:48:46;;;;;;;2.22;1.33;;;21.00;94.00;;;;;;5055643;28;20410;-77
2022/11/24 07:51:14;;;;;;;4.88;2.25;;;20.80;94.20;;;;;;5043273;28;20052;-77
2022/11/24 07:53:43;;;;;;;3.67;2.15;;;20.80;94.40;;;;;;5032360;28;20053;-77
2022/11/24 07:56:12;;;;;;;5.35;3.15;;;20.80;94.30;;;;;;5082615;28;20124;-77
2022/11/24 07:58:39;;;;;;;5.10;2.42;;;20.80;94.40;;;;;;5059202;28;20049;-76
2022/11/24 08:01:15;;;;;;;5.38;2.40;;;20.70;94.30;;;;;;5047557;28;20050;-77
2022/11/24 08:03:43;;;;;;;3.72;2.30;;;20.40;94.50;;;;;;5053766;28;20048;-76
2022/11/24 08:06:12;;;;;;;4.20;2.47;;;20.30;95.00;;;;;;5086236;28;20128;-77
2022/11/24 08:08:59;;;;;;;6.07;2.40;;;20.30;95.00;;;;;;5090466;28;20470;-76
2022/11/24 08:11:26;;;;;;;3.70;2.40;;;20.10;95.60;;;;;;5051387;28;20056;-76
2022/11/24 08:13:54;;;;;;;4.75;2.38;;;20.00;95.80;;;;;;5072361;28;20048;-76
2022/11/24 08:16:21;;;;;;;6.65;2.20;;;19.90;95.70;;;;;;5071112;28;20056;-77
2022/11/24 08:18:53;;;;;;;5.60;2.30;;;19.70;95.80;;;;;;5089666;28;20062;-76
2022/11/24 08:21:22;;;;;;;5.07;2.63;;;19.50;96.10;;;;;;5055683;28;20835;-76
2022/11/24 08:23:54;;;;;;;6.07;2.97;;;19.40;96.60;;;;;;5068565;28;20044;-76
2022/11/24 08:26:23;;;;;;;3.38;2.03;;;19.20;97.10;;;;;;5066973;28;20060;-75
2022/11/24 08:28:57;;;;;;;6.97;2.00;;;19.10;97.20;;;;;;5058048;28;20098;-75
2022/11/24 08:31:31;;;;;;;4.97;2.28;;;18.90;97.70;;;;;;5040254;28;20032;-75
2022/11/24 08:33:59;;;;;;;5.68;2.28;;;18.90;98.00;;;;;;5072076;28;20133;-76
2022/11/24 08:36:27;;;;;;;6.78;1.95;;;19.00;97.70;;;;;;5067562;28;20051;-75
2022/11/24 08:38:56;;;;;;;3.40;2.00;;;18.90;98.10;;;;;;5054779;28;20063;-76
2022/11/24 08:41:25;;;;;;;5.03;2.58;;;18.90;98.00;;;;;;5064306;28;20074;-75
2022/11/24 08:43:54;;;;;;;4.63;1.73;;;19.00;98.20;;;;;;5067302;28;20036;-76
2022/11/24 08:46:22;;;;;;;4.35;2.13;;;19.00;98.00;;;;;;5067691;28;20045;-75
2022/11/24 08:48:52;;;;;;;5.82;1.90;;;19.10;98.30;;;;;;5036779;28;20305;-76
2022/11/24 08:51:22;;;;;;;3.50;1.70;;;19.10;98.40;;;;;;5049573;28;20056;-75
2022/11/24 08:53:57;;;;;;;4.68;2.10;;;19.30;98.40;;;;;;5071317;28;20039;-76
2022/11/24 08:56:26;;;;;;;3.30;1.90;;;19.40;98.30;;;;;;5070299;28;20051;-75
2022/11/24 08:58:54;;;;;;;3.55;2.15;;;19.40;98.10;;;;;;5089061;28;20046;-76
2022/11/24 09:01:22;;;;;;;3.58;1.67;;;19.40;98.00;;;;;;5070746;28;20055;-75
2022/11/24 09:03:50;;;;;;;2.88;1.65;;;19.40;98.10;;;;;;5088489;28;20048;-75
2022/11/24 09:06:24;;;;;;;3.00;1.92;;;19.40;98.40;;;;;;5067011;28;20040;-75
2022/11/24 09:08:54;;;;;;;3.03;1.90;;;19.40;98.30;;;;;;5069099;28;20036;-75
2022/11/24 09:11:22;;;;;;;3.65;2.25;;;19.30;98.50;;;;;;5068063;28;20458;-75
2022/11/24 09:13:50;;;;;;;3.05;1.70;;;19.30;98.80;;;;;;5053431;28;20059;-76
2022/11/24 09:16:20;;;;;;;5.05;1.98;;;19.40;98.70;;;;;;5051415;28;20072;-76
2022/11/24 09:18:57;;;;;;;3.17;1.67;;;19.50;98.60;;;;;;5053688;28;20573;-75
2022/11/24 09:21:25;;;;;;;4.88;1.90;;;19.50;98.70;;;;;;5066115;28;20083;-75
2022/11/24 09:23:53;;;;;;;6.18;2.75;;;19.70;98.40;;;;;;5070232;28;20044;-75
2022/11/24 09:26:24;;;;;;;5.65;2.05;;;19.70;98.60;;;;;;5067047;28;20075;-72
2022/11/24 09:28:53;;;;;;;3.72;2.30;;;19.80;98.50;;;;;;5045564;28;20427;-75
2022/11/24 09:31:29;;;;;;;3.30;2.17;;;20.10;98.50;;;;;;5075439;28;20041;-74
2022/11/24 09:33:58;;;;;;;4.93;2.45;;;20.30;98.10;;;;;;5043426;28;20087;-73
2022/11/24 09:36:26;;;;;;;4.10;2.05;;;20.50;97.90;;;;;;5065631;28;20170;-74
2022/11/24 09:38:54;;;;;;;3.40;1.88;;;20.50;97.90;;;;;;5081245;28;20051;-74
2022/11/24 09:41:38;;;;;;;3.92;1.60;;;20.70;97.50;;;;;;5040978;28;20119;-74
2022/11/24 09:44:33;;;;;;;3.13;1.30;;;20.60;97.70;;;;;;5070481;28;20433;-74
2022/11/24 09:47:19;;;;;;;5.72;1.90;;;20.80;97.80;;;;;;5075295;28;20131;-75
2022/11/24 09:50:12;;;;;;;2.63;1.50;;;21.10;97.00;;;;;;5053333;28;20052;-75
2022/11/24 09:52:46;;;;;;;2.85;1.55;;;21.20;97.40;;;;;;5044652;28;20449;-75
2022/11/24 09:55:40;;;;;;;2.70;1.55;;;21.40;97.00;;;;;;5083299;28;20060;-74
2022/11/24 09:58:26;;;;;;;3.15;1.63;;;21.40;97.10;;;;;;5070130;28;20040;-74
2022/11/24 10:00:55;;;;;;;3.50;1.85;;;21.20;96.90;;;;;;5051246;28;20512;-74
2022/11/24 10:03:43;;;;;;;3.20;2.00;;;21.30;97.00;;;;;;5023531;28;20041;-75
2022/11/24 10:06:37;;;;;;;2.63;1.20;;;20.90;97.10;;;;;;5043438;28;20110;-74
2022/11/24 10:09:36;;;;;;;4.53;2.13;;;20.80;97.40;;;;;;5070991;28;20410;-74
2022/11/24 10:12:18;;;;;;;2.60;1.45;;;21.00;97.40;;;;;;5074224;28;20119;-74
2022/11/24 10:15:15;;;;;;;2.67;1.27;;;21.00;97.20;;;;;;5050980;28;20148;-74
2022/11/24 10:17:52;;;;;;;2.88;1.08;;;21.00;97.20;;;;;;5050110;28;20131;-74
2022/11/24 10:20:38;;;;;;;3.75;1.65;;;20.90;97.30;;;;;;5052243;28;20044;-74
2022/11/24 10:23:08;;;;;;;2.95;1.67;;;21.00;97.50;;;;;;5068126;28;20068;-74
2022/11/24 10:25:46;;;;;;;4.55;1.50;;;20.90;96.90;;;;;;5052524;28;20103;-74
2022/11/24 10:28:15;;;;;;;2.88;1.77;;;20.80;97.20;;;;;;5066634;28;20129;-74
2022/11/24 10:30:42;;;;;;;4.30;1.80;;;20.80;97.20;;;;;;5033959;28;20052;-74
2022/11/24 10:33:19;;;;;;;3.30;1.60;;;20.80;97.40;;;;;;5063210;28;20487;-74
2022/11/24 10:35:55;;;;;;;2.83;1.50;;;20.80;97.40;;;;;;5085598;28;20050;-74
2022/11/24 10:38:34;;;;;;;3.83;1.23;;;20.70;97.60;;;;;;5080287;28;20127;-74
2022/11/24 10:41:12;;;;;;;2.97;1.40;;;20.80;97.80;;;;;;5061802;28;20146;-75
2022/11/24 10:43:41;;;;;;;4.95;1.52;;;20.80;97.70;;;;;;5082566;28;20704;-74
2022/11/24 10:46:23;;;;;;;4.30;1.85;;;20.70;97.50;;;;;;5047516;28;20140;-74
2022/11/24 10:49:02;;;;;;;7.88;1.67;;;20.60;97.60;;;;;;5047554;28;20053;-74
2022/11/24 10:51:36;;;;;;;5.80;2.00;;;20.70;97.50;;;;;;5041618;28;20071;-74
2022/11/24 10:54:16;;;;;;;6.97;1.70;;;20.70;97.10;;;;;;5078382;28;20063;-74
2022/11/24 10:56:45;;;;;;;3.72;1.60;;;20.80;97.00;;;;;;5061118;28;20048;-73
2022/11/24 10:59:35;;;;;;;3.10;1.52;;;20.90;97.20;;;;;;5044996;28;20528;-74
2022/11/24 11:02:36;;;;;;;1.33;1.02;;;20.90;97.20;;;;;;5059107;28;20128;-73
2022/11/24 11:05:26;;;;;;;1.75;1.40;;;20.90;97.20;;;;;;5046734;28;20115;-74
2022/11/24 11:08:13;;;;;;;4.05;1.30;;;20.90;97.00;;;;;;5067098;28;20177;-72
2022/11/24 11:10:42;;;;;;;3.78;1.33;;;20.90;97.10;;;;;;5018273;28;20053;-73
2022/11/24 11:13:24;;;;;;;2.65;1.60;;;20.90;96.70;;;;;;5069943;28;20060;-73
2022/11/24 11:15:52;;;;;;;4.25;1.20;;;20.90;96.70;;;;;;5050249;28;20126;-74
2022/11/24 11:18:21;;;;;;;3.53;1.52;;;21.00;96.80;;;;;;5068422;28;20040;-75
2022/11/24 11:20:54;;;;;;;3.90;2.13;;;20.90;97.00;;;;;;5049377;28;20063;-74
2022/11/24 11:23:27;;;;;;;2.58;1.50;;;20.80;96.70;;;;;;5023419;28;20062;-74
2022/11/24 11:26:22;;;;;;;5.05;1.95;;;20.70;96.60;;;;;;5066902;28;20036;-74
2022/11/24 11:29:01;;;;;;;3.75;2.00;;;20.60;96.60;;;;;;5082761;28;20051;-75
2022/11/24 11:32:14;;;;;;;2.95;1.50;;;20.50;96.80;;;;;;5053238;28;20067;-75
2022/11/24 11:35:02;;;;;;;3.00;1.52;;;20.50;97.10;;;;;;5056980;28;20067;-74
2022/11/24 11:37:31;;;;;;;4.75;1.90;;;20.50;96.70;;;;;;5085768;28;20048;-74
2022/11/24 11:40:00;;;;;;;4.10;1.90;;;20.30;96.50;;;;;;5072479;28;20413;-74
2022/11/24 11:42:33;;;;;;;4.28;1.88;;;20.10;96.40;;;;;;5054011;28;20072;-75
2022/11/24 11:45:44;;;;;;;4.68;1.58;;;20.20;97.00;;;;;;5086859;28;20043;-75
2022/11/24 11:48:28;;;;;;;5.55;1.77;;;20.30;97.50;;;;;;5080034;28;20154;-74
2022/11/24 11:51:19;;;;;;;2.35;1.45;;;20.30;97.60;;;;;;5075435;28;20123;-74
2022/11/24 11:54:25;;;;;;;2.70;1.38;;;20.30;97.70;;;;;;5072229;28;20044;-73
2022/11/24 11:57:25;;;;;;;3.42;1.33;;;20.30;97.30;;;;;;5041210;28;20520;-75
2022/11/24 12:00:11;;;;;;;4.28;1.95;;;20.30;97.20;;;;;;5060339;28;20044;-75
2022/11/24 12:03:00;;;;;;;3.58;1.75;;;20.30;97.30;;;;;;5066500;28;20132;-73
2022/11/24 12:05:43;;;;;;;6.70;1.73;;;20.10;97.10;;;;;;5072176;28;20073;-73
2022/11/24 12:08:30;;;;;;;3.55;1.80;;;19.80;97.30;;;;;;5063802;28;20106;-73
2022/11/24 12:11:11;;;;;;;30.67;17.58;;;19.70;98.00;;;;;;5045369;28;20067;-74
2022/11/24 12:13:48;;;;;;;5.00;2.10;;;19.40;98.50;;;;;;5052415;28;20044;-74
2022/11/24 12:16:29;;;;;;;4.18;1.63;;;19.20;98.80;;;;;;5086082;28;20040;-73
2022/11/24 12:19:12;;;;;;;3.05;1.80;;;19.10;98.90;;;;;;5054802;28;20059;-74
2022/11/24 12:22:01;;;;;;;2.33;1.77;;;18.80;99.40;;;;;;5051637;28;20051;-74
2022/11/24 12:24:57;;;;;;;5.47;1.60;;;18.60;99.50;;;;;;5087935;28;20146;-73
2022/11/24 12:27:34;;;;;;;2.97;1.83;;;18.40;99.70;;;;;;5050385;28;20398;-73
2022/11/24 12:30:16;;;;;;;4.70;1.95;;;18.50;99.80;;;;;;5055314;28;20333;-74
2022/11/24 12:33:04;;;;;;;3.38;2.08;;;18.50;99.60;;;;;;5084929;28;20051;-74
2022/11/24 12:35:41;;;;;;;4.30;1.70;;;18.50;99.10;;;;;;5063070;28;20124;-74
2022/11/24 12:38:26;;;;;;;2.75;1.27;;;18.50;98.90;;;;;;5065815;28;20384;-73
2022/11/24 12:41:21;;;;;;;2.35;1.60;;;18.50;98.80;;;;;;5064547;28;20044;-73
2022/11/24 12:44:21;;;;;;;2.90;1.60;;;18.30;98.90;;;;;;5081466;28;20058;-73
2022/11/24 12:47:26;;;;;;;1.77;1.17;;;18.20;99.30;;;;;;5068206;28;20050;-74
2022/11/24 12:50:18;;;;;;;3.85;1.75;;;18.10;99.50;;;;;;5088040;28;20036;-73
2022/11/24 12:52:48;;;;;;;3.17;1.83;;;18.20;99.60;;;;;;5085317;28;20059;-73
2022/11/24 12:55:21;;;;;;;2.63;1.33;;;18.20;99.30;;;;;;5053151;28;20138;-73
2022/11/24 12:58:05;;;;;;;3.08;1.30;;;18.10;99.00;;;;;;5069870;28;20444;-73
2022/11/24 13:00:42;;;;;;;2.75;1.35;;;18.10;99.20;;;;;;5065975;28;20048;-74
2022/11/24 13:03:22;;;;;;;2.30;1.60;;;18.10;99.40;;;;;;5082983;28;20128;-73
2022/11/24 13:06:09;;;;;;;2.70;1.77;;;18.10;99.40;;;;;;5042449;28;20069;-74
2022/11/24 13:08:37;;;;;;;2.35;1.73;;;18.00;99.30;;;;;;5068795;28;20056;-74
2022/11/24 13:11:20;;;;;;;2.00;1.40;;;17.90;99.60;;;;;;5068527;28;20052;-74
2022/11/24 13:14:17;;;;;;;3.90;1.95;;;17.70;99.90;;;;;;5051637;28;20048;-74
2022/11/24 13:17:20;;;;;;;3.15;2.20;;;17.80;99.90;;;;;;5062647;28;20044;-73
2022/11/24 13:20:29;;;;;;;3.28;2.05;;;17.90;99.90;;;;;;5082787;28;20083;-73